Time;durP1;ratioP1;P1;durP2;ratioP2;P2;SDS_P1;SDS_P2;PMS_P1;PMS_P2;Temp;Humidity;BMP_temperature;BMP_pressure;BME280_temperature;BME280_humidity;BME280_pressure;Samples;Min_cycle;Max_cycle;Signal;HPM_P1;HPM_P2
2023/12/08 00:01:27;;;;;;;5.70;4.10;;;;;;;;;;5033311;28;20463;-67
2023/12/08 00:03:53;;;;;;;6.22;4.63;;;;;;;;;;5032858;28;20480;-67
2023/12/08 00:06:19;;;;;;;7.00;5.33;;;;;;;;;;5032983;28;20320;-66
2023/12/08 00:08:45;;;;;;;10.53;4.50;;;;;;;;;;5032296;28;20408;-66
2023/12/08 00:11:11;;;;;;;7.50;6.07;;;;;;;;;;5032525;28;20437;-68
2023/12/08 00:13:37;;;;;;;6.18;4.15;;;;;;;;;;5032237;28;20433;-68
2023/12/08 00:16:03;;;;;;;6.82;5.05;;;;;;;;;;5032194;28;20206;-68
2023/12/08 00:18:29;;;;;;;9.80;5.40;;;;;;;;;;5032361;28;20635;-68
2023/12/08 00:20:55;;;;;;;6.38;4.18;;;;;;;;;;5032179;28;20200;-68
2023/12/08 00:23:21;;;;;;;7.10;5.70;;;;;;;;;;5014306;28;20194;-67
2023/12/08 00:25:47;;;;;;;7.23;5.13;;;;;;;;;;5014637;28;20376;-68
2023/12/08 00:28:13;;;;;;;4.32;3.83;;;;;;;;;;5032268;28;20435;-67
2023/12/08 00:30:40;;;;;;;7.33;5.47;;;;;;;;;;5014463;28;20188;-68
2023/12/08 00:33:06;;;;;;;5.65;4.25;;;;;;;;;;5014759;28;20501;-67
2023/12/08 00:35:32;;;;;;;6.18;5.05;;;;;;;;;;5032172;28;20184;-67
2023/12/08 00:37:58;;;;;;;8.40;5.27;;;;;;;;;;5014039;28;20181;-67
2023/12/08 00:40:24;;;;;;;8.30;5.20;;;;;;;;;;5032110;28;20408;-67
2023/12/08 00:42:50;;;;;;;5.60;4.00;;;;;;;;;;5014164;28;20466;-68
2023/12/08 00:45:16;;;;;;;8.57;5.70;;;;;;;;;;5032524;28;20408;-67
2023/12/08 00:47:42;;;;;;;6.13;5.17;;;;;;;;;;5031933;28;20783;-68
2023/12/08 00:50:08;;;;;;;7.13;5.50;;;;;;;;;;5032515;28;20408;-68
2023/12/08 00:52:35;;;;;;;6.22;4.45;;;;;;;;;;5034232;28;20211;-69
2023/12/08 00:55:01;;;;;;;5.60;5.10;;;;;;;;;;5017799;28;20238;-67
2023/12/08 00:57:27;;;;;;;6.95;4.70;;;;;;;;;;5017793;28;20187;-69
2023/12/08 00:59:53;;;;;;;5.60;4.30;;;;;;;;;;5035852;28;20185;-68
2023/12/08 01:02:19;;;;;;;5.93;4.43;;;;;;;;;;5035613;28;20211;-68
2023/12/08 01:04:45;;;;;;;6.00;4.30;;;;;;;;;;5035672;28;20411;-68
2023/12/08 01:07:11;;;;;;;7.32;4.63;;;;;;;;;;5035635;28;20446;-69
2023/12/08 01:09:37;;;;;;;5.78;4.40;;;;;;;;;;5035320;28;20174;-69
2023/12/08 01:12:03;;;;;;;6.70;4.50;;;;;;;;;;5017740;28;20184;-68
2023/12/08 01:14:30;;;;;;;5.25;3.83;;;;;;;;;;5035310;28;20443;-69
2023/12/08 01:16:56;;;;;;;5.43;3.72;;;;;;;;;;5035104;28;20172;-68
2023/12/08 01:19:22;;;;;;;4.07;3.53;;;;;;;;;;5017450;28;20779;-68
2023/12/08 01:21:48;;;;;;;7.82;3.50;;;;;;;;;;5035057;28;20871;-69
2023/12/08 01:24:15;;;;;;;5.43;4.00;;;;;;;;;;5035074;28;20216;-69
2023/12/08 01:26:44;;;;;;;5.35;3.95;;;;;;;;;;5035076;28;20232;-69
2023/12/08 01:29:10;;;;;;;5.38;3.85;;;;;;;;;;5034774;28;20263;-69
2023/12/08 01:31:36;;;;;;;5.32;4.53;;;;;;;;;;5034853;28;20189;-68
2023/12/08 01:34:02;;;;;;;6.13;3.70;;;;;;;;;;5034895;28;20630;-68
2023/12/08 01:36:28;;;;;;;6.33;4.57;;;;;;;;;;5034562;28;20438;-68
2023/12/08 01:38:54;;;;;;;5.70;4.17;;;;;;;;;;5034592;28;20508;-68
2023/12/08 01:41:20;;;;;;;6.00;5.10;;;;;;;;;;5034902;28;20451;-68
2023/12/08 01:43:46;;;;;;;8.52;6.20;;;;;;;;;;5034847;28;20506;-68
2023/12/08 01:46:15;;;;;;;8.30;5.20;;;;;;;;;;5017151;28;20593;-69
2023/12/08 01:48:41;;;;;;;5.85;5.25;;;;;;;;;;5035209;28;20215;-68
2023/12/08 01:51:07;;;;;;;7.55;5.30;;;;;;;;;;5035179;28;20252;-68
2023/12/08 01:53:33;;;;;;;7.95;5.35;;;;;;;;;;5035052;28;20216;-68
2023/12/08 01:55:59;;;;;;;7.72;5.78;;;;;;;;;;5035243;28;20189;-68
2023/12/08 01:58:26;;;;;;;9.38;5.80;;;;;;;;;;5035161;28;20238;-68
2023/12/08 02:00:53;;;;;;;8.68;7.00;;;;;;;;;;5034730;28;20181;-69
2023/12/08 02:03:20;;;;;;;11.20;6.78;;;;;;;;;;5033774;28;20276;-66
2023/12/08 02:05:49;;;;;;;11.15;7.68;;;;;;;;;;5017051;28;20175;-66
2023/12/08 02:08:15;;;;;;;9.15;7.03;;;;;;;;;;5034672;28;20172;-68
2023/12/08 02:10:41;;;;;;;8.02;6.15;;;;;;;;;;5034672;28;20241;-66
2023/12/08 02:13:07;;;;;;;8.23;6.75;;;;;;;;;;5034520;28;20203;-68
2023/12/08 02:15:33;;;;;;;9.07;5.68;;;;;;;;;;5034767;28;20168;-68
2023/12/08 02:17:59;;;;;;;8.35;5.93;;;;;;;;;;5016269;28;20328;-67
2023/12/08 02:20:25;;;;;;;7.50;6.53;;;;;;;;;;5034104;28;20181;-68
2023/12/08 02:22:51;;;;;;;7.47;5.53;;;;;;;;;;5034130;28;20212;-67
2023/12/08 02:25:17;;;;;;;7.78;6.10;;;;;;;;;;5033960;28;20427;-67
2023/12/08 02:27:44;;;;;;;7.90;6.37;;;;;;;;;;5016281;28;20172;-68
2023/12/08 02:30:10;;;;;;;7.30;5.32;;;;;;;;;;5034030;28;20472;-68
2023/12/08 02:32:41;;;;;;;7.93;5.60;;;;;;;;;;5034229;28;20276;-67
2023/12/08 02:35:08;;;;;;;7.97;6.50;;;;;;;;;;5033828;28;20537;-67
2023/12/08 02:37:36;;;;;;;9.10;6.75;;;;;;;;;;5015913;28;20214;-67
2023/12/08 02:40:05;;;;;;;10.50;6.75;;;;;;;;;;5016488;28;20184;-67
2023/12/08 02:42:31;;;;;;;7.95;6.05;;;;;;;;;;5034189;28;20208;-69
2023/12/08 02:44:57;;;;;;;6.00;4.78;;;;;;;;;;5033631;28;20184;-67
2023/12/08 02:47:23;;;;;;;8.33;6.53;;;;;;;;;;5033413;28;20179;-67
2023/12/08 02:49:49;;;;;;;8.70;6.22;;;;;;;;;;5033302;28;20766;-67
2023/12/08 02:52:15;;;;;;;7.90;5.93;;;;;;;;;;5033907;28;20175;-66
2023/12/08 02:54:41;;;;;;;8.10;5.47;;;;;;;;;;5033518;28;20462;-67
2023/12/08 02:57:07;;;;;;;8.63;5.70;;;;;;;;;;5015869;28;20415;-67
2023/12/08 02:59:33;;;;;;;7.47;5.50;;;;;;;;;;5033554;28;20401;-67
2023/12/08 03:01:59;;;;;;;8.00;5.80;;;;;;;;;;5033344;28;20454;-67
2023/12/08 03:04:24;;;;;;;9.93;6.00;;;;;;;;;;5032877;28;20197;-67
2023/12/08 03:06:50;;;;;;;9.67;6.10;;;;;;;;;;5032820;28;20412;-67
2023/12/08 03:09:16;;;;;;;7.13;6.13;;;;;;;;;;5032996;28;20469;-68
2023/12/08 03:11:42;;;;;;;8.90;6.60;;;;;;;;;;5032655;28;20507;-67
2023/12/08 03:14:08;;;;;;;8.83;6.57;;;;;;;;;;5014828;28;20454;-67
2023/12/08 03:16:34;;;;;;;10.63;7.28;;;;;;;;;;5032642;28;20488;-67
2023/12/08 03:19:00;;;;;;;9.37;6.37;;;;;;;;;;5032750;28;20183;-67
2023/12/08 03:21:27;;;;;;;10.17;6.07;;;;;;;;;;5033277;28;20545;-69
2023/12/08 03:23:53;;;;;;;9.23;6.78;;;;;;;;;;5032802;28;20447;-68
2023/12/08 03:26:19;;;;;;;8.85;7.35;;;;;;;;;;5015381;28;20176;-68
2023/12/08 03:28:45;;;;;;;9.88;6.45;;;;;;;;;;5032993;28;20180;-68
2023/12/08 03:31:43;;;;;;;11.80;7.18;;;;;;;;;;5015145;28;20659;-68
2023/12/08 03:34:09;;;;;;;9.98;6.82;;;;;;;;;;4989529;28;20697;-67
2023/12/08 03:36:35;;;;;;;7.95;5.57;;;;;;;;;;5032712;28;20183;-67
2023/12/08 03:39:01;;;;;;;11.23;6.93;;;;;;;;;;5032942;28;20638;-68
2023/12/08 03:41:27;;;;;;;11.10;7.97;;;;;;;;;;5015256;28;20471;-68
2023/12/08 03:43:53;;;;;;;9.47;7.47;;;;;;;;;;5032616;28;20546;-67
2023/12/08 03:46:19;;;;;;;11.73;8.00;;;;;;;;;;5032551;28;20414;-67
2023/12/08 03:48:45;;;;;;;12.63;8.50;;;;;;;;;;5033301;28;20415;-68
2023/12/08 03:51:11;;;;;;;9.10;6.60;;;;;;;;;;5032976;28;20926;-68
2023/12/08 03:53:38;;;;;;;12.73;7.90;;;;;;;;;;5054525;22;20498;-68
2023/12/08 03:56:05;;;;;;;10.38;6.50;;;;;;;;;;5031422;28;20409;-67
2023/12/08 03:58:31;;;;;;;8.02;6.43;;;;;;;;;;5031078;28;20605;-70
2023/12/08 04:00:57;;;;;;;8.63;6.03;;;;;;;;;;5029762;28;20211;-67
2023/12/08 04:03:23;;;;;;;8.53;6.50;;;;;;;;;;5029642;28;20456;-68
2023/12/08 04:05:49;;;;;;;9.32;7.32;;;;;;;;;;5031018;28;20410;-67
2023/12/08 04:08:15;;;;;;;12.40;8.23;;;;;;;;;;5030829;28;20176;-67
2023/12/08 04:10:41;;;;;;;8.37;6.83;;;;;;;;;;5030979;28;20923;-70
2023/12/08 04:13:07;;;;;;;9.87;6.10;;;;;;;;;;5030802;28;20434;-74
2023/12/08 04:15:33;;;;;;;9.93;6.73;;;;;;;;;;5031079;28;20439;-70
2023/12/08 04:17:59;;;;;;;8.05;6.38;;;;;;;;;;5030766;28;20411;-71
2023/12/08 04:20:25;;;;;;;7.07;5.27;;;;;;;;;;5031038;28;20181;-68
2023/12/08 04:22:51;;;;;;;7.88;5.68;;;;;;;;;;5030889;28;20835;-69
2023/12/08 04:25:17;;;;;;;7.40;6.43;;;;;;;;;;5029622;28;20245;-69
2023/12/08 04:27:43;;;;;;;9.20;5.70;;;;;;;;;;5033284;28;20431;-69
2023/12/08 04:30:09;;;;;;;8.73;5.30;;;;;;;;;;5034705;28;20412;-69
2023/12/08 04:32:35;;;;;;;6.82;5.38;;;;;;;;;;5034811;28;20924;-69
2023/12/08 04:35:01;;;;;;;7.85;5.25;;;;;;;;;;5034553;28;20634;-69
2023/12/08 04:37:28;;;;;;;6.60;5.68;;;;;;;;;;5034420;28;20203;-68
2023/12/08 04:39:53;;;;;;;9.38;5.68;;;;;;;;;;5034497;28;20185;-72
2023/12/08 04:42:19;;;;;;;7.33;5.33;;;;;;;;;;5034327;28;20200;-69
2023/12/08 04:44:45;;;;;;;7.67;6.13;;;;;;;;;;5033029;28;21028;-69
2023/12/08 04:47:11;;;;;;;9.63;6.80;;;;;;;;;;5034126;28;20906;-69
2023/12/08 04:49:37;;;;;;;9.77;7.03;;;;;;;;;;5034352;28;20491;-69
2023/12/08 04:52:03;;;;;;;8.73;6.40;;;;;;;;;;5034271;28;20898;-69
2023/12/08 04:54:29;;;;;;;8.15;5.35;;;;;;;;;;5034053;28;20506;-69
2023/12/08 04:56:55;;;;;;;10.50;6.40;;;;;;;;;;5034172;28;20189;-70
2023/12/08 04:59:22;;;;;;;9.18;5.28;;;;;;;;;;5032774;28;20444;-70
2023/12/08 05:01:51;;;;;;;6.97;5.43;;;;;;;;;;5034046;28;20254;-69
2023/12/08 05:04:17;;;;;;;9.65;6.13;;;;;;;;;;5033992;28;20238;-70
2023/12/08 05:06:44;;;;;;;8.23;5.80;;;;;;;;;;5034090;28;20244;-70
2023/12/08 05:09:13;;;;;;;9.80;6.32;;;;;;;;;;5034100;28;20194;-69
2023/12/08 05:11:39;;;;;;;8.20;6.00;;;;;;;;;;5034088;28;20199;-69
2023/12/08 05:14:05;;;;;;;11.80;6.50;;;;;;;;;;5033822;28;20205;-69
2023/12/08 05:16:31;;;;;;;7.30;5.63;;;;;;;;;;5033663;28;20536;-70
2023/12/08 05:18:57;;;;;;;11.07;6.18;;;;;;;;;;5033779;28;20421;-69
2023/12/08 05:21:24;;;;;;;8.10;5.50;;;;;;;;;;5033628;28;20594;-70
2023/12/08 05:23:50;;;;;;;7.82;6.20;;;;;;;;;;5032137;28;20442;-69
2023/12/08 05:26:16;;;;;;;8.70;5.23;;;;;;;;;;5033547;28;20170;-70
2023/12/08 05:28:41;;;;;;;8.73;6.27;;;;;;;;;;5033855;28;20428;-69
2023/12/08 05:31:07;;;;;;;7.93;5.63;;;;;;;;;;5033698;28;20487;-69
2023/12/08 05:33:34;;;;;;;8.97;5.90;;;;;;;;;;5033690;28;20540;-69
2023/12/08 05:36:00;;;;;;;7.45;5.20;;;;;;;;;;5033771;28;20417;-69
2023/12/08 05:38:26;;;;;;;8.97;5.90;;;;;;;;;;5033265;28;20246;-69
2023/12/08 05:40:52;;;;;;;10.07;5.90;;;;;;;;;;5033595;28;20486;-69
2023/12/08 05:43:18;;;;;;;8.10;5.50;;;;;;;;;;5033123;28;20433;-68
2023/12/08 05:45:44;;;;;;;7.22;4.88;;;;;;;;;;5033214;28;20417;-69
2023/12/08 05:48:11;;;;;;;7.80;4.93;;;;;;;;;;5033440;28;20173;-69
2023/12/08 05:50:37;;;;;;;6.47;4.30;;;;;;;;;;5032009;28;20434;-71
2023/12/08 05:53:03;;;;;;;7.97;5.57;;;;;;;;;;5033001;28;20457;-72
2023/12/08 05:55:29;;;;;;;9.20;4.93;;;;;;;;;;5033139;28;20418;-70
2023/12/08 05:57:55;;;;;;;9.10;5.30;;;;;;;;;;5033043;28;20428;-69
2023/12/08 06:00:21;;;;;;;8.97;5.70;;;;;;;;;;5032389;28;21122;-68
2023/12/08 06:02:47;;;;;;;8.10;5.35;;;;;;;;;;5032709;28;20479;-68
2023/12/08 06:05:13;;;;;;;7.30;5.90;;;;;;;;;;5031843;28;20269;-67
2023/12/08 06:07:42;;;;;;;7.53;4.70;;;;;;;;;;5030880;28;20452;-68
2023/12/08 06:10:08;;;;;;;10.63;5.80;;;;;;;;;;5032565;28;20479;-68
2023/12/08 06:12:35;;;;;;;5.80;4.73;;;;;;;;;;5032739;28;20510;-68
2023/12/08 06:15:01;;;;;;;6.22;4.28;;;;;;;;;;5032752;28;20447;-68
2023/12/08 06:17:27;;;;;;;7.17;5.20;;;;;;;;;;5032442;28;20201;-68
2023/12/08 06:19:53;;;;;;;6.35;3.83;;;;;;;;;;5032607;28;20421;-68
2023/12/08 06:22:19;;;;;;;9.13;4.95;;;;;;;;;;5032413;28;20206;-68
2023/12/08 06:24:45;;;;;;;6.40;4.70;;;;;;;;;;5032483;28;20198;-68
2023/12/08 06:27:11;;;;;;;4.57;3.70;;;;;;;;;;5032367;28;20411;-68
2023/12/08 06:29:37;;;;;;;9.13;5.40;;;;;;;;;;5032346;28;20424;-67
2023/12/08 06:32:03;;;;;;;6.18;4.10;;;;;;;;;;5014670;28;20182;-67
2023/12/08 06:34:29;;;;;;;9.93;6.68;;;;;;;;;;5014436;28;20205;-68
2023/12/08 06:36:55;;;;;;;7.30;4.90;;;;;;;;;;5014884;28;20530;-67
2023/12/08 06:39:21;;;;;;;15.10;8.50;;;;;;;;;;5014850;28;20243;-69
2023/12/08 06:41:47;;;;;;;11.43;7.97;;;;;;;;;;5014504;28;20907;-69
2023/12/08 06:44:13;;;;;;;10.02;8.07;;;;;;;;;;5032127;28;20200;-69
2023/12/08 06:46:39;;;;;;;9.60;7.70;;;;;;;;;;5014400;28;20183;-70
2023/12/08 06:49:05;;;;;;;8.67;7.27;;;;;;;;;;5033207;28;20412;-72
2023/12/08 06:51:33;;;;;;;11.70;7.60;;;;;;;;;;5033822;28;20779;-71
2023/12/08 06:53:59;;;;;;;10.73;6.90;;;;;;;;;;5035434;28;20439;-71
2023/12/08 06:56:25;;;;;;;14.40;7.90;;;;;;;;;;5034778;28;20176;-71
2023/12/08 06:58:51;;;;;;;14.10;9.97;;;;;;;;;;5016604;28;20405;-71
2023/12/08 07:01:17;;;;;;;10.37;7.47;;;;;;;;;;5034300;28;20474;-71
2023/12/08 07:03:43;;;;;;;17.83;9.77;;;;;;;;;;5033977;28;20430;-71
2023/12/08 07:06:09;;;;;;;12.80;8.10;;;;;;;;;;5034207;28;20891;-71
2023/12/08 07:08:35;;;;;;;12.00;9.10;;;;;;;;;;5016524;28;20417;-71
2023/12/08 07:11:02;;;;;;;7.47;6.43;;;;;;;;;;5034433;28;20184;-71
2023/12/08 07:13:28;;;;;;;7.60;4.57;;;;;;;;;;5016451;28;20281;-72
2023/12/08 07:15:54;;;;;;;7.10;4.63;;;;;;;;;;5034023;28;20495;-73
2023/12/08 07:18:20;;;;;;;4.33;2.80;;;;;;;;;;5033510;28;20405;-72
2023/12/08 07:20:46;;;;;;;3.80;2.40;;;;;;;;;;5016422;28;20425;-72
2023/12/08 07:23:12;;;;;;;4.03;2.40;;;;;;;;;;5033061;28;20468;-72
2023/12/08 07:25:38;;;;;;;4.90;1.73;;;;;;;;;;5015407;28;20417;-72
2023/12/08 07:28:04;;;;;;;3.47;2.00;;;;;;;;;;5032139;28;20410;-71
2023/12/08 07:30:30;;;;;;;3.70;1.90;;;;;;;;;;5014842;28;20524;-73
2023/12/08 07:32:56;;;;;;;2.60;1.50;;;;;;;;;;5025284;28;20458;-71
2023/12/08 07:35:22;;;;;;;2.63;1.57;;;;;;;;;;5024774;28;20533;-71
2023/12/08 07:37:49;;;;;;;3.20;1.87;;;;;;;;;;5032349;28;20414;-71
2023/12/08 07:40:15;;;;;;;2.83;1.63;;;;;;;;;;5016842;28;20898;-70
2023/12/08 07:42:42;;;;;;;3.37;2.23;;;;;;;;;;5016889;28;20465;-70
2023/12/08 07:45:09;;;;;;;2.20;1.47;;;;;;;;;;5031619;28;20498;-70
2023/12/08 07:47:34;;;;;;;4.03;2.17;;;;;;;;;;5031323;28;20425;-70
2023/12/08 07:50:00;;;;;;;3.20;1.80;;;;;;;;;;5031683;28;20406;-70
2023/12/08 07:52:26;;;;;;;6.40;2.13;;;;;;;;;;5018593;28;20476;-71
2023/12/08 07:54:54;;;;;;;2.73;1.60;;;;;;;;;;5014015;28;20529;-70
2023/12/08 07:57:20;;;;;;;4.50;1.90;;;;;;;;;;5031533;28;20881;-70
2023/12/08 07:59:47;;;;;;;2.33;1.20;;;;;;;;;;5013392;28;20545;-70
2023/12/08 08:02:13;;;;;;;2.60;1.50;;;;;;;;;;5022998;28;20464;-70
2023/12/08 08:04:39;;;;;;;3.10;1.63;;;;;;;;;;5015606;28;20438;-70
2023/12/08 08:07:05;;;;;;;3.80;2.17;;;;;;;;;;5015392;28;20403;-70
2023/12/08 08:09:31;;;;;;;8.83;2.10;;;;;;;;;;5015695;28;20403;-70
2023/12/08 08:11:57;;;;;;;3.20;2.07;;;;;;;;;;5024565;28;20513;-71
2023/12/08 08:14:23;;;;;;;3.00;1.90;;;;;;;;;;5035443;28;20465;-71
2023/12/08 08:16:49;;;;;;;2.80;2.50;;;;;;;;;;5034438;28;20433;-71
2023/12/08 08:19:15;;;;;;;3.43;2.73;;;;;;;;;;5014144;28;20423;-71
2023/12/08 08:21:41;;;;;;;3.33;2.30;;;;;;;;;;5022235;28;20516;-71
2023/12/08 08:24:07;;;;;;;4.40;3.00;;;;;;;;;;5032018;28;20501;-71
2023/12/08 08:26:33;;;;;;;6.33;4.23;;;;;;;;;;5023117;28;20539;-70
2023/12/08 08:28:59;;;;;;;24.00;14.60;;;;;;;;;;5014889;28;20987;-71
2023/12/08 08:31:25;;;;;;;20.10;15.60;;;;;;;;;;5019241;28;20523;-71
2023/12/08 08:33:51;;;;;;;26.87;20.37;;;;;;;;;;5034406;28;20445;-71
2023/12/08 08:36:18;;;;;;;25.93;21.43;;;;;;;;;;5034132;28;20969;-71
2023/12/08 08:38:45;;;;;;;24.33;18.40;;;;;;;;;;5033921;28;21075;-71
2023/12/08 08:41:11;;;;;;;27.53;20.10;;;;;;;;;;5016245;28;20435;-70
2023/12/08 08:43:37;;;;;;;24.53;18.90;;;;;;;;;;5032458;28;20527;-71
2023/12/08 08:46:03;;;;;;;22.57;17.47;;;;;;;;;;5033890;28;20915;-71
2023/12/08 08:48:29;;;;;;;21.67;17.50;;;;;;;;;;5034335;28;20414;-71
2023/12/08 08:50:55;;;;;;;20.73;14.03;;;;;;;;;;5016365;28;20936;-70
2023/12/08 08:53:21;;;;;;;22.27;16.57;;;;;;;;;;5033099;28;20949;-70
2023/12/08 08:55:47;;;;;;;30.40;15.30;;;;;;;;;;5034014;28;20406;-71
2023/12/08 08:58:13;;;;;;;18.83;15.00;;;;;;;;;;5033851;28;20432;-71
2023/12/08 09:00:40;;;;;;;27.30;16.33;;;;;;;;;;5033827;28;20406;-71
2023/12/08 09:03:06;;;;;;;18.43;12.00;;;;;;;;;;5032157;28;20552;-71
2023/12/08 09:05:34;;;;;;;17.80;11.80;;;;;;;;;;5033908;28;20409;-70
2023/12/08 09:08:00;;;;;;;26.97;12.87;;;;;;;;;;5033436;28;20418;-71
2023/12/08 09:10:26;;;;;;;15.90;11.80;;;;;;;;;;5033875;28;20490;-71
2023/12/08 09:12:52;;;;;;;13.80;10.40;;;;;;;;;;5026984;28;20435;-71
2023/12/08 09:15:18;;;;;;;20.57;10.27;;;;;;;;;;4996193;28;20415;-71
2023/12/08 09:17:44;;;;;;;13.97;10.27;;;;;;;;;;5000754;28;20427;-72
2023/12/08 09:20:14;;;;;;;14.70;11.10;;;;;;;;;;5014272;28;20419;-71
2023/12/08 09:22:40;;;;;;;14.67;11.60;;;;;;;;;;5029104;28;20831;-72
2023/12/08 09:25:07;;;;;;;14.70;11.60;;;;;;;;;;5033687;28;20485;-71
2023/12/08 09:27:32;;;;;;;10.53;9.20;;;;;;;;;;5033246;28;20464;-71
2023/12/08 09:29:58;;;;;;;16.30;10.50;;;;;;;;;;5033512;28;20425;-71
2023/12/08 09:32:24;;;;;;;16.53;11.00;;;;;;;;;;5020186;28;20442;-71
2023/12/08 09:34:50;;;;;;;12.97;11.00;;;;;;;;;;5013799;28;20469;-72
2023/12/08 09:37:16;;;;;;;15.70;12.90;;;;;;;;;;5013575;28;20465;-71
2023/12/08 09:39:43;;;;;;;25.43;14.57;;;;;;;;;;5013503;28;20501;-71
2023/12/08 09:42:13;;;;;;;17.00;12.80;;;;;;;;;;5025078;28;20928;-72
2023/12/08 09:44:39;;;;;;;22.07;12.30;;;;;;;;;;5032605;28;20525;-71
2023/12/08 09:47:07;;;;;;;18.40;13.30;;;;;;;;;;5032869;28;20493;-70
2023/12/08 09:49:37;;;;;;;17.50;13.83;;;;;;;;;;5033064;28;20778;-72
2023/12/08 09:52:03;;;;;;;19.67;12.53;;;;;;;;;;5023242;28;20428;-71
2023/12/08 09:54:30;;;;;;;17.43;12.30;;;;;;;;;;5013209;28;20475;-71
2023/12/08 09:56:56;;;;;;;12.77;10.27;;;;;;;;;;5012673;28;20501;-71
2023/12/08 09:59:23;;;;;;;13.70;7.23;;;;;;;;;;4995515;28;20423;-71
2023/12/08 10:01:49;;;;;;;10.73;6.40;;;;;;;;;;5020309;28;20558;-71
2023/12/08 10:04:15;;;;;;;12.63;6.20;;;;;;;;;;5032983;28;20456;-69
2023/12/08 10:06:41;;;;;;;6.40;3.97;;;;;;;;;;5034260;28;20453;-71
2023/12/08 10:09:07;;;;;;;4.73;2.80;;;;;;;;;;5033983;28;20417;-71
2023/12/08 10:11:34;;;;;;;3.60;2.47;;;;;;;;;;5028157;28;20440;-73
2023/12/08 10:14:01;;;;;;;2.63;1.67;;;;;;;;;;5014265;28;20443;-74
2023/12/08 10:16:27;;;;;;;2.70;1.50;;;;;;;;;;5013777;28;20433;-73
2023/12/08 10:19:03;;;;;;;2.93;1.50;;;;;;;;;;5030545;28;20428;-73
2023/12/08 10:21:29;;;;;;;3.10;1.80;;;;;;;;;;5032168;28;20471;-71
2023/12/08 10:24:02;;;;;;;3.00;1.27;;;;;;;;;;5033013;28;20511;-73
2023/12/08 10:26:29;;;;;;;1.90;1.00;;;;;;;;;;5032678;28;20412;-72
2023/12/08 10:28:56;;;;;;;2.20;1.20;;;;;;;;;;5029351;28;20815;-72
2023/12/08 10:31:22;;;;;;;2.50;1.50;;;;;;;;;;4995673;28;21002;-72
2023/12/08 10:33:48;;;;;;;2.00;1.47;;;;;;;;;;5012828;28;20459;-71
2023/12/08 10:36:14;;;;;;;2.63;1.30;;;;;;;;;;5012921;28;20422;-72
2023/12/08 10:38:41;;;;;;;2.20;1.10;;;;;;;;;;5013801;28;20420;-72
2023/12/08 10:41:09;;;;;;;2.00;1.23;;;;;;;;;;5032314;28;20418;-72
2023/12/08 10:43:37;;;;;;;1.90;0.93;;;;;;;;;;5031792;28;20438;-71
2023/12/08 10:46:03;;;;;;;2.00;1.10;;;;;;;;;;5030260;28;20501;-70
2023/12/08 10:48:30;;;;;;;2.90;1.50;;;;;;;;;;5031869;28;20919;-70
2023/12/08 10:50:56;;;;;;;3.07;1.97;;;;;;;;;;5031846;28;20432;-71
2023/12/08 10:53:22;;;;;;;13.80;8.00;;;;;;;;;;5031787;28;20850;-71
2023/12/08 10:55:52;;;;;;;10.63;8.70;;;;;;;;;;5026458;28;20427;-71
2023/12/08 10:58:20;;;;;;;15.23;11.40;;;;;;;;;;5012035;28;20741;-71
2023/12/08 11:00:46;;;;;;;19.20;13.20;;;;;;;;;;5012079;28;20417;-71
2023/12/08 11:03:13;;;;;;;15.73;10.67;;;;;;;;;;5012158;28;20492;-70
2023/12/08 11:05:47;;;;;;;11.87;10.23;;;;;;;;;;5012399;28;20942;-71
2023/12/08 11:08:15;;;;;;;12.40;9.60;;;;;;;;;;5011660;28;20436;-71
2023/12/08 11:10:42;;;;;;;11.43;8.60;;;;;;;;;;5010688;28;20443;-71
2023/12/08 11:13:29;;;;;;;12.53;9.50;;;;;;;;;;5012175;28;20825;-72
2023/12/08 11:16:08;;;;;;;11.97;8.23;;;;;;;;;;5017491;28;20482;-71
2023/12/08 11:18:36;;;;;;;10.33;9.27;;;;;;;;;;5013621;28;20428;-71
2023/12/08 11:21:04;;;;;;;10.70;8.73;;;;;;;;;;5030898;28;20524;-71
2023/12/08 11:23:30;;;;;;;12.70;8.50;;;;;;;;;;5029468;28;20436;-72
2023/12/08 11:26:15;;;;;;;11.03;9.57;;;;;;;;;;5012573;28;20411;-72
2023/12/08 11:28:51;;;;;;;11.97;9.67;;;;;;;;;;5015305;28;20422;-72
2023/12/08 11:31:24;;;;;;;9.67;7.83;;;;;;;;;;5022627;28;20412;-72
2023/12/08 11:33:54;;;;;;;8.50;6.90;;;;;;;;;;5030915;28;20436;-71
2023/12/08 11:36:20;;;;;;;10.70;8.47;;;;;;;;;;5031014;28;20416;-71
2023/12/08 11:38:46;;;;;;;8.50;7.07;;;;;;;;;;5030226;28;20463;-72
2023/12/08 11:41:13;;;;;;;12.10;7.90;;;;;;;;;;5012008;28;20409;-71
2023/12/08 11:43:43;;;;;;;9.13;8.23;;;;;;;;;;5012185;28;20434;-71
2023/12/08 11:46:09;;;;;;;11.33;8.07;;;;;;;;;;5012859;28;20415;-72
2023/12/08 11:48:36;;;;;;;10.40;7.50;;;;;;;;;;5019846;28;20486;-72
2023/12/08 11:51:02;;;;;;;6.70;5.00;;;;;;;;;;5039728;28;20429;-70
2023/12/08 11:53:28;;;;;;;5.20;3.83;;;;;;;;;;5039182;28;20455;-71
2023/12/08 11:55:54;;;;;;;4.30;3.40;;;;;;;;;;5038948;28;20434;-70
2023/12/08 11:58:24;;;;;;;3.87;3.10;;;;;;;;;;5038080;28;20406;-71
2023/12/08 12:00:50;;;;;;;2.67;1.60;;;;;;;;;;5005384;28;20499;-70
2023/12/08 12:03:16;;;;;;;4.07;1.47;;;;;;;;;;5020569;28;20469;-70
2023/12/08 12:05:43;;;;;;;4.23;2.00;;;;;;;;;;5019391;28;20898;-71
2023/12/08 12:08:09;;;;;;;2.30;1.40;;;;;;;;;;5018524;28;20465;-72
2023/12/08 12:10:35;;;;;;;3.80;2.33;;;;;;;;;;5035379;28;20437;-71
2023/12/08 12:13:05;;;;;;;4.57;2.50;;;;;;;;;;5039841;28;20912;-72
2023/12/08 12:15:33;;;;;;;12.83;3.10;;;;;;;;;;5039811;28;20412;-72
2023/12/08 12:18:00;;;;;;;6.93;3.80;;;;;;;;;;5038798;28;20449;-71
2023/12/08 12:20:30;;;;;;;3.10;2.27;;;;;;;;;;5020570;28;20724;-72
2023/12/08 12:22:56;;;;;;;3.93;2.90;;;;;;;;;;5018048;28;20478;-70
2023/12/08 12:25:23;;;;;;;3.10;1.97;;;;;;;;;;5016591;28;20429;-72
2023/12/08 12:27:49;;;;;;;4.47;3.13;;;;;;;;;;5002121;28;20910;-71
2023/12/08 12:30:16;;;;;;;4.73;3.33;;;;;;;;;;5039987;28;20421;-71
2023/12/08 12:32:44;;;;;;;3.90;2.67;;;;;;;;;;5040983;28;20568;-72
2023/12/08 12:35:10;;;;;;;3.60;2.70;;;;;;;;;;5036533;28;20430;-73
2023/12/08 12:37:37;;;;;;;4.47;2.90;;;;;;;;;;5032962;28;20453;-73
2023/12/08 12:40:07;;;;;;;5.17;2.80;;;;;;;;;;5013856;28;20921;-73
2023/12/08 12:42:38;;;;;;;3.63;2.30;;;;;;;;;;5010982;28;20477;-73
2023/12/08 12:45:04;;;;;;;2.67;1.80;;;;;;;;;;4992667;28;20468;-73
2023/12/08 12:47:30;;;;;;;5.13;1.77;;;;;;;;;;5026086;28;20425;-70
2023/12/08 12:50:00;;;;;;;3.43;2.30;;;;;;;;;;5012445;28;20429;-71
2023/12/08 12:52:27;;;;;;;2.40;1.70;;;;;;;;;;5030097;28;20424;-71
2023/12/08 12:54:54;;;;;;;5.00;2.03;;;;;;;;;;5030323;28;20578;-71
2023/12/08 12:57:38;;;;;;;4.13;2.50;;;;;;;;;;5025911;28;20426;-71
2023/12/08 13:00:05;;;;;;;2.93;1.60;;;;;;;;;;4993695;28;20449;-71
2023/12/08 13:02:32;;;;;;;3.10;1.97;;;;;;;;;;5011023;28;20682;-71
2023/12/08 13:05:04;;;;;;;3.80;2.40;;;;;;;;;;5024464;28;20417;-71
2023/12/08 13:07:29;;;;;;;6.53;3.13;;;;;;;;;;5029045;28;20981;-71
2023/12/08 13:09:56;;;;;;;5.47;2.83;;;;;;;;;;5029626;28;20525;-71
2023/12/08 13:12:22;;;;;;;3.13;2.13;;;;;;;;;;5033837;28;20450;-71
2023/12/08 13:14:49;;;;;;;3.40;2.67;;;;;;;;;;5029957;28;20482;-71
2023/12/08 13:17:15;;;;;;;5.17;3.17;;;;;;;;;;5032640;28;20448;-70
2023/12/08 13:19:41;;;;;;;4.60;2.80;;;;;;;;;;5033575;28;20409;-71
2023/12/08 13:22:07;;;;;;;4.10;2.70;;;;;;;;;;5032841;28;20468;-71
2023/12/08 13:24:33;;;;;;;5.47;3.83;;;;;;;;;;5015265;28;20747;-71
2023/12/08 13:26:59;;;;;;;5.77;4.00;;;;;;;;;;5051963;28;20405;-71
2023/12/08 13:29:25;;;;;;;5.93;4.10;;;;;;;;;;5050763;28;20423;-71
2023/12/08 13:31:51;;;;;;;4.67;3.37;;;;;;;;;;5032279;28;20417;-71
2023/12/08 13:34:17;;;;;;;5.03;3.87;;;;;;;;;;5033133;28;20434;-71
2023/12/08 13:36:43;;;;;;;5.50;3.50;;;;;;;;;;5046243;28;20507;-70
2023/12/08 13:39:10;;;;;;;5.17;3.17;;;;;;;;;;5053158;28;20469;-71
2023/12/08 13:41:36;;;;;;;4.13;3.10;;;;;;;;;;5031368;28;20530;-71
2023/12/08 13:44:02;;;;;;;4.40;2.93;;;;;;;;;;5031988;28;20432;-70
2023/12/08 13:46:28;;;;;;;7.00;4.53;;;;;;;;;;5041410;28;20435;-72
2023/12/08 13:48:55;;;;;;;5.27;3.87;;;7.90;21.80;;;;;;5031585;28;20425;-67
2023/12/08 13:51:20;;;;;;;8.90;5.40;;;8.20;15.20;;;;;;5045855;28;20420;-69
2023/12/08 13:53:46;;;;;;;8.70;4.03;;;7.80;20.00;;;;;;5054443;28;20466;-67
2023/12/08 13:56:11;;;;;;;5.27;3.97;;;7.70;15.50;;;;;;5036791;28;20540;-69
2023/12/08 13:58:37;;;;;;;5.13;3.80;;;7.80;15.60;;;;;;5032586;28;20185;-69
2023/12/08 14:01:03;;;;;;;3.90;3.27;;;;;;;;;;5033844;28;20676;-69
2023/12/08 14:03:28;;;;;;;6.73;3.80;;;7.70;16.20;;;;;;5033905;28;21348;-69
2023/12/08 14:05:54;;;;;;;5.83;3.87;;;7.60;15.60;;;;;;5035787;28;20483;-67
2023/12/08 14:08:20;;;;;;;5.83;3.40;;;7.90;17.10;;;;;;5035459;28;20284;-69
2023/12/08 14:10:46;;;;;;;4.03;3.00;;;7.60;17.80;;;;;;5033855;28;20249;-69
2023/12/08 14:13:12;;;;;;;7.93;4.20;;;7.30;22.10;;;;;;5034096;28;21259;-68
2023/12/08 14:15:38;;;;;;;5.20;3.27;;;;;;;;;;5015183;28;20824;-69
2023/12/08 14:18:03;;;;;;;4.00;3.27;;;7.50;18.00;;;;;;4996425;28;20237;-68
2023/12/08 14:20:29;;;;;;;5.10;4.20;;;7.60;19.30;;;;;;5029783;28;20467;-69
2023/12/08 14:22:55;;;;;;;6.33;4.00;;;7.60;19.70;;;;;;5026081;28;20230;-71
2023/12/08 14:25:23;;;;;;;5.07;3.30;;;;;;;;;;5026257;28;20354;-70
2023/12/08 14:27:48;;;;;;;4.70;3.33;;;7.50;19.00;;;;;;5008824;28;20190;-72
2023/12/08 14:30:14;;;;;;;6.90;4.40;;;7.50;21.00;;;;;;5020217;28;20425;-70